createdAt,value
2019-02-10T16:32:25.105Z,65.00
2019-02-10T16:34:54.491Z,64.90
2019-02-10T16:37:23.927Z,65.20
2019-02-10T16:39:53.344Z,65.30
2019-02-10T16:42:22.742Z,65.80
2019-02-10T16:44:52.155Z,65.60
2019-02-10T16:47:22.632Z,65.80
2019-02-10T16:49:52.082Z,65.80
2019-02-10T16:52:21.577Z,65.90
2019-02-10T16:54:50.959Z,65.90
2019-02-10T16:57:20.345Z,66.00
2019-02-10T16:59:49.775Z,65.90
2019-02-10T17:02:19.151Z,66.10
2019-02-10T17:04:48.564Z,66.20
2019-02-10T17:07:17.934Z,66.50
2019-02-10T17:09:47.378Z,66.70
2019-02-10T17:12:16.769Z,67.20
2019-02-10T17:14:46.150Z,67.90
2019-02-10T17:17:15.576Z,69.00
2019-02-10T17:19:44.967Z,71.30
2019-02-10T17:22:14.384Z,76.00
2019-02-10T17:24:43.755Z,78.50
2019-02-10T17:27:13.132Z,79.80
2019-02-10T17:29:42.505Z,81.70
2019-02-10T17:32:12.143Z,83.40
2019-02-10T17:34:41.551Z,84.90
2019-02-10T17:37:10.970Z,85.40
2019-02-10T17:39:40.598Z,85.30
2019-02-10T17:42:10.020Z,85.50
2019-02-10T17:44:39.390Z,85.70
2019-02-10T17:47:08.788Z,85.40
2019-02-10T17:49:38.184Z,85.70
2019-02-10T17:52:07.560Z,85.70
2019-02-10T17:54:36.931Z,86.10
2019-02-10T17:57:06.302Z,86.00
2019-02-10T17:59:35.731Z,86.50
2019-02-10T18:02:05.120Z,86.80
2019-02-10T18:04:37.583Z,87.10
2019-02-10T18:07:05.532Z,87.00
2019-02-10T18:09:35.287Z,86.50
2019-02-10T18:12:04.679Z,86.80
2019-02-10T18:15:10.967Z,86.70
2019-02-10T18:18:00.888Z,86.60
2019-02-10T18:20:41.149Z,86.30
2019-02-10T18:23:25.783Z,86.00
2019-02-10T18:26:04.878Z,85.70
2019-02-10T18:28:44.312Z,85.70
2019-02-10T18:31:44.887Z,85.50
2019-02-10T18:34:24.468Z,85.30
2019-02-10T18:37:15.871Z,85.00
2019-02-10T18:39:55.500Z,84.80
2019-02-10T18:43:01.792Z,84.40
2019-02-10T18:45:52.870Z,84.50
2019-02-10T18:48:39.776Z,84.30
2019-02-10T18:51:23.288Z,84.10
2019-02-10T18:54:23.827Z,84.90
2019-02-10T18:57:09.543Z,84.00
2019-02-10T18:59:47.920Z,84.40
2019-02-10T19:02:35.038Z,85.00
2019-02-10T19:05:21.292Z,85.30
2019-02-10T19:08:08.275Z,85.80
2019-02-10T19:11:14.928Z,85.90
2019-02-10T19:14:06.280Z,86.10
2019-02-10T19:16:44.642Z,86.60
2019-02-10T19:19:31.441Z,86.80
2019-02-10T19:22:15.759Z,86.80
2019-02-10T19:25:10.165Z,86.90
2019-02-10T19:27:53.823Z,86.90
2019-02-10T19:31:00.091Z,86.80
2019-02-10T19:33:46.956Z,86.90
2019-02-10T19:36:53.465Z,86.90
2019-02-10T19:39:44.599Z,86.80
2019-02-10T19:42:30.163Z,86.70
2019-02-10T19:45:17.309Z,86.80
2019-02-10T19:48:08.404Z,86.70
2019-02-10T19:51:05.712Z,86.60
2019-02-10T19:53:54.047Z,86.30
2019-02-10T19:56:42.760Z,86.30
2019-02-10T19:59:31.092Z,86.00
2019-02-10T20:02:24.067Z,85.70
2019-02-10T20:05:09.011Z,85.40
2019-02-10T20:08:00.256Z,85.30
2019-02-10T20:10:47.094Z,84.90
2019-02-10T20:13:22.110Z,84.80
2019-02-10T20:16:04.757Z,84.60
2019-02-10T20:18:50.053Z,84.30
2019-02-10T20:21:47.495Z,84.20
2019-02-10T20:24:34.671Z,84.00
2019-02-10T20:27:16.509Z,83.90
2019-02-10T20:30:20.103Z,83.30
2019-02-10T20:33:11.191Z,83.40
2019-02-10T20:35:46.786Z,82.80
2019-02-10T20:38:26.921Z,82.10
2019-02-10T20:41:06.915Z,81.50
2019-02-10T20:43:53.706Z,80.30
2019-02-10T20:46:28.497Z,79.00
2019-02-10T20:49:19.904Z,78.70
2019-02-10T20:52:06.784Z,78.60
2019-02-10T20:54:55.175Z,79.10
2019-02-10T20:57:58.634Z,77.40
2019-02-10T21:00:42.484Z,77.70
2019-02-10T21:03:24.068Z,77.90
2019-02-10T21:06:05.883Z,79.20
2019-02-10T21:08:57.061Z,80.60
2019-02-10T21:11:45.323Z,81.90
2019-02-10T21:14:36.435Z,82.90
2019-02-10T21:17:12.487Z,83.80
2019-02-10T21:20:01.281Z,84.40
2019-02-10T21:22:58.465Z,84.70
2019-02-10T21:25:52.554Z,84.90
2019-02-10T21:28:44.564Z,84.90
2019-02-10T21:31:32.896Z,84.80
2019-02-10T21:34:11.051Z,84.80
2019-02-10T21:36:57.931Z,84.60
2019-02-10T21:39:52.279Z,84.30
2019-02-10T21:42:29.471Z,84.00
2019-02-10T21:45:14.286Z,83.70
2019-02-10T21:47:50.514Z,83.20
2019-02-10T21:50:19.924Z,82.60
2019-02-10T21:52:49.299Z,82.50
2019-02-10T21:55:18.703Z,82.40
2019-02-10T21:57:48.075Z,82.30
2019-02-10T22:00:17.486Z,82.30
2019-02-10T22:02:46.864Z,82.40
2019-02-10T22:05:16.279Z,82.50
2019-02-10T22:07:45.651Z,82.50
2019-02-10T22:10:15.027Z,82.50
2019-02-10T22:12:44.416Z,82.60
2019-02-10T22:15:13.788Z,82.70
2019-02-10T22:17:43.184Z,82.60
2019-02-10T22:20:12.631Z,82.60
2019-02-10T22:22:42.038Z,82.70
2019-02-10T22:25:11.572Z,82.40
2019-02-10T22:27:40.946Z,82.50
2019-02-10T22:30:13.261Z,82.40
2019-02-10T22:32:42.674Z,82.50
2019-02-10T22:35:12.200Z,82.40
2019-02-10T22:37:41.803Z,82.50
2019-02-10T22:40:11.391Z,82.50
2019-02-10T22:42:45.860Z,82.40
2019-02-10T22:45:12.120Z,82.40
2019-02-10T22:47:41.494Z,82.40
2019-02-10T22:50:12.275Z,82.20
2019-02-10T22:52:41.700Z,82.00
2019-02-10T22:55:11.172Z,81.50
2019-02-10T22:57:41.246Z,81.30
2019-02-10T23:00:42.427Z,81.30
2019-02-10T23:03:11.878Z,81.20
2019-02-10T23:05:41.252Z,81.20
2019-02-10T23:08:10.635Z,81.30
2019-02-10T23:10:39.997Z,81.20
2019-02-10T23:13:09.390Z,81.20
2019-02-10T23:15:38.771Z,81.40
2019-02-10T23:18:08.185Z,81.80
2019-02-10T23:20:37.575Z,82.50
2019-02-10T23:23:07.046Z,83.70
2019-02-10T23:25:36.355Z,84.70
2019-02-10T23:28:05.719Z,85.50
2019-02-10T23:30:35.123Z,86.20
2019-02-10T23:33:04.524Z,86.70
2019-02-10T23:35:33.920Z,87.20
2019-02-10T23:38:03.288Z,87.70
2019-02-10T23:40:32.728Z,88.30
2019-02-10T23:43:02.519Z,88.80
2019-02-10T23:45:31.871Z,89.10
2019-02-10T23:48:01.186Z,89.60
2019-02-10T23:50:30.618Z,89.90
2019-02-10T23:53:00.024Z,89.90
2019-02-10T23:55:29.410Z,89.70
2019-02-10T23:57:58.844Z,90.00
